Time;durP1;ratioP1;P1;durP2;ratioP2;P2;SDS_P1;SDS_P2;PMS_P1;PMS_P2;Temp;Humidity;BMP_temperature;BMP_pressure;BME280_temperature;BME280_humidity;BME280_pressure;Samples;Min_cycle;Max_cycle;Signal;HPM_P1;HPM_P2
2021/01/08 00:02:21;;;;;;;39.80;16.57;;;1.70;99.90;;;;;;5105494;28;20043;-70
2021/01/08 00:04:48;;;;;;;37.33;15.10;;;1.70;99.90;;;;;;5105462;28;20048;-69
2021/01/08 00:07:15;;;;;;;43.00;15.97;;;1.70;99.90;;;;;;5105622;28;20052;-70
2021/01/08 00:09:42;;;;;;;44.47;17.17;;;1.60;99.90;;;;;;5108842;28;20381;-70
2021/01/08 00:12:09;;;;;;;35.63;15.93;;;1.60;99.90;;;;;;5109541;28;20112;-70
2021/01/08 00:14:36;;;;;;;38.43;16.03;;;1.70;99.90;;;;;;5102203;28;20134;-70
2021/01/08 00:17:03;;;;;;;36.87;14.73;;;1.60;99.90;;;;;;5102881;28;20109;-70
2021/01/08 00:19:30;;;;;;;42.50;17.70;;;1.70;99.90;;;;;;5107252;28;20059;-70
2021/01/08 00:21:57;;;;;;;36.00;16.30;;;1.80;99.90;;;;;;5104811;28;20349;-70
2021/01/08 00:24:24;;;;;;;32.83;14.40;;;1.70;99.90;;;;;;5103721;28;20047;-70
2021/01/08 00:26:53;;;;;;;40.43;16.87;;;1.80;99.90;;;;;;5105415;28;20395;-70
2021/01/08 00:29:20;;;;;;;36.33;15.70;;;1.80;99.90;;;;;;5102601;28;20151;-70
2021/01/08 00:31:48;;;;;;;34.30;14.27;;;1.70;99.90;;;;;;5099594;28;20056;-70
2021/01/08 00:34:17;;;;;;;35.87;14.77;;;1.70;99.90;;;;;;5102174;28;20043;-70
2021/01/08 00:36:49;;;;;;;33.13;14.40;;;1.70;99.90;;;;;;5101954;28;20047;-70
2021/01/08 00:39:16;;;;;;;33.27;14.57;;;1.80;99.90;;;;;;5100222;28;20045;-70
2021/01/08 00:41:43;;;;;;;33.03;14.23;;;1.80;99.90;;;;;;5101475;28;20043;-70
2021/01/08 00:44:09;;;;;;;31.63;13.67;;;1.80;99.90;;;;;;5097865;28;20063;-70
2021/01/08 00:46:38;;;;;;;33.53;13.37;;;1.90;99.90;;;;;;5101366;28;20133;-70
2021/01/08 00:49:06;;;;;;;29.60;14.10;;;1.80;99.90;;;;;;5097014;28;20059;-70
2021/01/08 00:51:34;;;;;;;26.30;12.83;;;1.80;99.90;;;;;;5098925;28;20055;-70
2021/01/08 00:54:01;;;;;;;30.80;13.47;;;1.80;99.90;;;;;;5107133;28;20085;-70
2021/01/08 00:56:28;;;;;;;27.03;12.57;;;1.90;99.90;;;;;;5104178;28;20129;-70
2021/01/08 00:58:55;;;;;;;26.60;13.30;;;1.70;99.90;;;;;;5108630;28;20047;-70
2021/01/08 01:01:21;;;;;;;29.90;12.03;;;1.80;99.90;;;;;;5105886;28;20043;-70
2021/01/08 01:03:49;;;;;;;27.27;12.17;;;1.80;99.90;;;;;;5105430;28;20515;-70
2021/01/08 01:06:22;;;;;;;25.53;11.23;;;1.90;99.90;;;;;;5108376;28;20395;-70
2021/01/08 01:08:50;;;;;;;22.10;10.47;;;1.80;99.90;;;;;;5103974;28;20518;-70
2021/01/08 01:11:17;;;;;;;25.60;10.97;;;1.70;99.90;;;;;;5094584;28;20048;-70
2021/01/08 01:13:46;;;;;;;25.40;11.57;;;1.60;99.90;;;;;;5103522;28;20067;-70
2021/01/08 01:16:14;;;;;;;24.67;10.70;;;1.60;99.90;;;;;;5099104;28;20471;-70
2021/01/08 01:18:43;;;;;;;27.80;12.33;;;1.60;99.90;;;;;;5099717;28;20051;-70
2021/01/08 01:21:12;;;;;;;21.17;10.70;;;1.70;99.90;;;;;;5102001;28;20059;-70
2021/01/08 01:23:39;;;;;;;27.43;11.57;;;1.70;99.90;;;;;;5102726;28;20107;-70
2021/01/08 01:26:08;;;;;;;22.10;10.13;;;1.70;99.90;;;;;;5095639;28;20050;-70
2021/01/08 01:28:38;;;;;;;24.20;10.27;;;1.60;99.90;;;;;;5107182;28;20040;-73
2021/01/08 01:31:05;;;;;;;24.67;11.70;;;1.60;99.90;;;;;;5108664;28;20059;-70
2021/01/08 01:33:32;;;;;;;20.17;10.40;;;1.60;99.90;;;;;;5108174;28;20393;-70
2021/01/08 01:36:03;;;;;;;24.67;11.50;;;1.70;99.90;;;;;;5105405;28;20495;-70
2021/01/08 01:38:30;;;;;;;21.60;9.90;;;1.70;99.90;;;;;;5107041;28;20047;-70
2021/01/08 01:40:56;;;;;;;21.23;10.67;;;1.70;99.90;;;;;;5107362;28;20051;-70
2021/01/08 01:43:24;;;;;;;20.47;10.00;;;1.60;99.90;;;;;;5108709;28;20392;-70
2021/01/08 01:45:51;;;;;;;22.83;11.20;;;1.70;99.90;;;;;;5108278;28;20043;-70
2021/01/08 01:48:19;;;;;;;23.17;11.00;;;1.70;99.90;;;;;;5108710;28;20407;-70
2021/01/08 01:50:46;;;;;;;19.80;9.73;;;1.60;99.90;;;;;;5108284;28;20051;-70
2021/01/08 01:53:13;;;;;;;21.20;10.20;;;1.80;99.90;;;;;;5109153;28;20104;-70
2021/01/08 01:55:41;;;;;;;23.47;9.53;;;1.70;99.90;;;;;;5109159;28;20553;-70
2021/01/08 01:58:08;;;;;;;23.07;10.03;;;1.70;99.90;;;;;;5108554;28;20055;-70
2021/01/08 02:00:35;;;;;;;22.07;10.23;;;1.70;99.90;;;;;;5109152;28;20138;-70
2021/01/08 02:03:10;;;;;;;23.37;10.13;;;1.70;99.90;;;;;;5107402;28;20050;-70
2021/01/08 02:05:39;;;;;;;19.27;9.67;;;1.60;99.90;;;;;;5100193;28;20076;-70
2021/01/08 02:08:09;;;;;;;19.43;9.60;;;1.60;99.90;;;;;;5100082;28;20044;-70
2021/01/08 02:10:40;;;;;;;19.67;9.60;;;1.50;99.90;;;;;;5097022;28;20056;-70
2021/01/08 02:13:12;;;;;;;18.63;9.13;;;1.50;99.90;;;;;;5102869;28;20142;-70
2021/01/08 02:15:44;;;;;;;19.10;8.57;;;1.50;99.90;;;;;;5106899;28;20446;-70
2021/01/08 02:18:12;;;;;;;19.20;9.77;;;1.60;99.90;;;;;;5108880;28;20047;-70
2021/01/08 02:20:38;;;;;;;19.63;9.17;;;1.50;99.90;;;;;;5107619;28;20107;-70
2021/01/08 02:23:12;;;;;;;18.03;8.20;;;1.50;99.90;;;;;;5108652;28;20051;-70
2021/01/08 02:25:40;;;;;;;15.17;6.90;;;1.50;99.90;;;;;;5107037;28;20039;-70
2021/01/08 02:28:23;;;;;;;15.03;7.80;;;1.50;99.90;;;;;;5107131;28;20104;-70
2021/01/08 02:30:51;;;;;;;17.70;8.77;;;1.50;99.90;;;;;;5105982;28;20062;-70
2021/01/08 02:33:19;;;;;;;19.27;8.13;;;1.40;99.90;;;;;;5087652;28;20059;-70
2021/01/08 02:35:50;;;;;;;20.43;9.23;;;1.40;99.90;;;;;;5091531;28;20040;-70
2021/01/08 02:38:19;;;;;;;19.13;9.07;;;1.30;99.90;;;;;;5105389;28;20055;-70
2021/01/08 02:40:51;;;;;;;18.27;8.60;;;1.40;99.90;;;;;;5105623;28;20052;-70
2021/01/08 02:43:22;;;;;;;20.90;9.53;;;1.50;99.90;;;;;;5108644;28;20044;-70
2021/01/08 02:45:49;;;;;;;17.67;8.63;;;1.40;99.90;;;;;;5107463;28;20039;-70
2021/01/08 02:48:16;;;;;;;16.73;7.53;;;1.40;99.90;;;;;;5108387;28;20047;-70
2021/01/08 02:50:43;;;;;;;14.70;8.10;;;1.30;99.90;;;;;;5106355;28;20055;-70
2021/01/08 02:53:14;;;;;;;14.30;7.80;;;1.40;99.90;;;;;;5106893;28;20064;-70
2021/01/08 02:55:47;;;;;;;18.90;8.93;;;1.30;99.90;;;;;;5108093;28;20048;-70
2021/01/08 02:58:15;;;;;;;18.10;7.97;;;1.40;99.90;;;;;;5105353;28;20051;-70
2021/01/08 03:00:43;;;;;;;17.40;8.17;;;1.50;99.90;;;;;;5108014;28;20040;-70
2021/01/08 03:03:10;;;;;;;15.80;8.03;;;1.30;99.90;;;;;;5106974;28;20048;-70
2021/01/08 03:05:37;;;;;;;16.70;7.17;;;1.30;99.90;;;;;;5108152;28;20089;-70
2021/01/08 03:08:04;;;;;;;16.97;8.07;;;1.30;99.90;;;;;;5107857;28;20059;-70
2021/01/08 03:10:31;;;;;;;14.23;7.30;;;1.30;99.90;;;;;;5106951;28;20043;-70
2021/01/08 03:13:01;;;;;;;15.70;7.23;;;1.20;99.90;;;;;;5108161;28;20310;-70
2021/01/08 03:15:29;;;;;;;17.77;7.93;;;1.20;99.90;;;;;;5107378;28;20047;-70
2021/01/08 03:17:56;;;;;;;15.83;7.87;;;1.10;99.90;;;;;;5105576;28;20047;-70
2021/01/08 03:20:22;;;;;;;18.37;8.07;;;1.20;99.90;;;;;;5103858;28;20048;-70
2021/01/08 03:22:49;;;;;;;15.93;8.03;;;1.20;99.90;;;;;;5104975;28;20052;-70
2021/01/08 03:25:16;;;;;;;16.33;8.07;;;1.10;99.90;;;;;;5109122;28;20052;-70
2021/01/08 03:27:42;;;;;;;15.47;7.43;;;1.20;99.90;;;;;;5108468;28;20051;-70
2021/01/08 03:30:10;;;;;;;15.47;7.17;;;1.20;99.90;;;;;;5111364;28;20043;-70
2021/01/08 03:32:38;;;;;;;15.33;7.97;;;1.20;99.90;;;;;;5111236;28;20475;-70
2021/01/08 03:35:06;;;;;;;15.03;7.83;;;1.10;99.90;;;;;;5108187;28;20047;-70
2021/01/08 03:37:33;;;;;;;18.10;8.20;;;1.20;99.90;;;;;;5111666;28;20045;-69
2021/01/08 03:40:00;;;;;;;16.30;8.33;;;1.20;99.90;;;;;;5110487;28;20562;-70
2021/01/08 03:42:26;;;;;;;17.70;8.33;;;1.20;99.90;;;;;;5110471;28;20074;-69
2021/01/08 03:44:53;;;;;;;17.60;8.50;;;1.30;99.90;;;;;;5110501;28;20048;-69
2021/01/08 03:47:20;;;;;;;18.33;8.57;;;1.20;99.90;;;;;;5111385;28;20404;-70
2021/01/08 03:49:47;;;;;;;18.57;9.07;;;1.30;99.90;;;;;;5111113;28;20093;-70
2021/01/08 03:52:14;;;;;;;17.83;8.93;;;1.30;99.90;;;;;;5109584;28;20461;-69
2021/01/08 03:54:41;;;;;;;17.47;8.20;;;1.20;99.90;;;;;;5110575;28;20050;-69
2021/01/08 03:57:07;;;;;;;18.13;9.43;;;1.30;99.90;;;;;;5110366;28;20105;-69
2021/01/08 03:59:34;;;;;;;19.67;9.07;;;1.30;99.90;;;;;;5110739;28;20043;-69
2021/01/08 04:02:00;;;;;;;19.90;8.67;;;1.30;99.90;;;;;;5110645;28;20050;-69
2021/01/08 04:04:27;;;;;;;20.63;9.07;;;1.30;99.90;;;;;;5109914;28;20047;-69
2021/01/08 04:06:55;;;;;;;22.10;9.97;;;1.20;99.90;;;;;;5110989;28;20044;-69
2021/01/08 04:09:21;;;;;;;19.87;8.37;;;1.20;99.90;;;;;;5110529;28;20039;-69
2021/01/08 04:11:49;;;;;;;17.43;9.20;;;1.20;99.90;;;;;;5109936;28;20051;-69
2021/01/08 04:14:15;;;;;;;19.77;10.00;;;1.20;99.90;;;;;;5110440;28;20047;-69
2021/01/08 04:16:42;;;;;;;19.27;10.00;;;1.20;99.90;;;;;;5109714;28;20096;-69
2021/01/08 04:19:09;;;;;;;18.17;8.90;;;1.20;99.90;;;;;;5110548;28;20790;-69
2021/01/08 04:21:36;;;;;;;22.33;9.97;;;1.00;99.90;;;;;;5101660;28;20048;-69
2021/01/08 04:24:05;;;;;;;22.00;11.13;;;1.10;99.90;;;;;;5090238;28;20051;-69
2021/01/08 04:26:32;;;;;;;21.10;10.23;;;1.10;99.90;;;;;;5102416;28;20121;-69
2021/01/08 04:28:58;;;;;;;20.20;10.30;;;1.00;99.90;;;;;;5109712;28;20063;-69
2021/01/08 04:31:25;;;;;;;23.07;10.37;;;1.10;99.90;;;;;;5110228;28;20050;-69
2021/01/08 04:33:52;;;;;;;22.70;10.93;;;1.10;99.90;;;;;;5109745;28;20050;-69
2021/01/08 04:36:19;;;;;;;23.27;10.47;;;1.10;99.90;;;;;;5110477;28;20074;-69
2021/01/08 04:38:46;;;;;;;20.53;10.00;;;1.00;99.90;;;;;;5109656;28;20043;-70
2021/01/08 04:41:14;;;;;;;23.93;11.07;;;0.90;99.90;;;;;;5108794;28;20101;-69
2021/01/08 04:43:41;;;;;;;27.90;12.00;;;1.00;99.90;;;;;;5110890;28;20058;-69
2021/01/08 04:46:12;;;;;;;24.00;10.40;;;1.10;99.90;;;;;;5110051;28;20058;-69
2021/01/08 04:48:39;;;;;;;23.17;10.60;;;1.00;99.90;;;;;;5109867;28;20054;-69
2021/01/08 04:51:06;;;;;;;26.20;11.97;;;1.10;99.90;;;;;;5109933;28;20092;-69
2021/01/08 04:53:33;;;;;;;26.27;11.53;;;1.10;99.90;;;;;;5109120;28;20047;-69
2021/01/08 04:56:03;;;;;;;20.77;10.27;;;1.10;99.90;;;;;;5109985;28;20058;-69
2021/01/08 04:58:32;;;;;;;24.83;11.87;;;1.10;99.90;;;;;;5100738;28;20048;-69
2021/01/08 05:01:00;;;;;;;29.77;12.67;;;1.20;99.90;;;;;;5096419;28;20044;-69
2021/01/08 05:03:28;;;;;;;28.17;12.27;;;1.10;99.90;;;;;;5089497;28;20055;-69
2021/01/08 05:05:55;;;;;;;26.53;10.73;;;1.20;99.90;;;;;;5088984;28;20055;-69
2021/01/08 05:08:22;;;;;;;28.97;12.97;;;1.10;99.90;;;;;;5089339;28;20063;-69
2021/01/08 05:10:49;;;;;;;25.37;12.37;;;1.00;99.90;;;;;;5088156;28;20100;-69
2021/01/08 05:13:16;;;;;;;24.80;11.37;;;1.10;99.90;;;;;;5089176;28;20445;-69
2021/01/08 05:15:51;;;;;;;29.17;12.67;;;1.00;99.90;;;;;;5089160;28;20094;-69
2021/01/08 05:18:20;;;;;;;33.00;12.97;;;1.00;99.90;;;;;;5088134;28;20462;-69
2021/01/08 05:20:50;;;;;;;29.97;11.20;;;0.90;99.90;;;;;;5088632;28;20054;-69
2021/01/08 05:23:17;;;;;;;27.07;12.33;;;0.90;99.90;;;;;;5088462;28;20117;-69
2021/01/08 05:25:46;;;;;;;25.27;10.60;;;0.90;99.90;;;;;;5089073;28;20056;-69
2021/01/08 05:28:16;;;;;;;26.07;11.70;;;0.90;99.90;;;;;;5107068;28;20083;-69
2021/01/08 05:30:43;;;;;;;26.60;11.27;;;0.90;99.90;;;;;;5111477;28;20048;-69
2021/01/08 05:33:14;;;;;;;27.37;11.57;;;0.90;99.90;;;;;;5109667;28;20526;-69
2021/01/08 05:35:42;;;;;;;32.07;12.40;;;0.90;99.90;;;;;;5108425;28;20454;-69
2021/01/08 05:38:10;;;;;;;28.83;12.37;;;0.90;99.90;;;;;;5109545;28;20051;-69
2021/01/08 05:40:39;;;;;;;26.00;11.47;;;0.80;99.90;;;;;;5108638;28;20067;-69
2021/01/08 05:43:06;;;;;;;28.57;12.37;;;0.80;99.90;;;;;;5108455;28;20495;-69
2021/01/08 05:45:33;;;;;;;26.43;12.43;;;0.80;99.90;;;;;;5109258;28;20056;-69
2021/01/08 05:48:01;;;;;;;29.10;11.57;;;0.80;99.90;;;;;;5107763;28;20044;-69
2021/01/08 05:50:29;;;;;;;28.57;12.00;;;0.80;99.90;;;;;;5108715;28;20518;-69
2021/01/08 05:53:01;;;;;;;25.67;11.53;;;0.80;99.90;;;;;;5109100;28;20051;-69
2021/01/08 05:55:28;;;;;;;32.27;13.13;;;0.90;99.90;;;;;;5108881;28;20048;-69
2021/01/08 05:57:55;;;;;;;26.47;11.53;;;0.80;99.90;;;;;;5109527;28;20496;-69
2021/01/08 06:00:22;;;;;;;31.23;12.43;;;0.80;99.90;;;;;;5107107;28;20489;-69
2021/01/08 06:02:51;;;;;;;27.50;12.00;;;0.80;99.90;;;;;;5109332;28;20044;-69
2021/01/08 06:05:19;;;;;;;26.40;11.83;;;0.90;99.90;;;;;;5109173;28;20059;-69
2021/01/08 06:07:50;;;;;;;26.23;12.33;;;0.90;99.90;;;;;;5108394;28;20058;-69
2021/01/08 06:10:21;;;;;;;23.77;10.83;;;0.90;99.90;;;;;;5108985;28;20113;-69
2021/01/08 06:12:49;;;;;;;26.50;12.33;;;0.80;99.90;;;;;;5108172;28;20051;-69
2021/01/08 06:15:17;;;;;;;29.90;12.83;;;0.90;99.90;;;;;;5109059;28;20051;-69
2021/01/08 06:17:48;;;;;;;32.97;13.20;;;0.80;99.90;;;;;;5108941;28;20806;-69
2021/01/08 06:20:15;;;;;;;24.23;11.07;;;0.90;99.90;;;;;;5108068;28;20081;-69
2021/01/08 06:22:42;;;;;;;27.83;13.77;;;0.90;99.90;;;;;;5105173;28;20465;-69
2021/01/08 06:25:11;;;;;;;25.20;12.33;;;0.90;99.90;;;;;;5108391;28;20078;-69
2021/01/08 06:27:43;;;;;;;28.70;12.70;;;1.00;99.90;;;;;;5109047;28;20056;-69
2021/01/08 06:30:21;;;;;;;30.90;12.50;;;0.90;99.90;;;;;;5107899;28;20142;-69
2021/01/08 06:32:49;;;;;;;28.43;11.70;;;1.00;99.90;;;;;;5108246;28;20542;-69
2021/01/08 06:35:19;;;;;;;31.47;13.27;;;0.90;99.90;;;;;;5108605;28;20047;-69
2021/01/08 06:37:45;;;;;;;32.93;13.00;;;0.90;99.90;;;;;;5107986;28;20059;-69
2021/01/08 06:40:14;;;;;;;27.63;12.20;;;1.00;99.90;;;;;;5109058;28;20055;-69
2021/01/08 06:42:46;;;;;;;27.67;13.40;;;0.90;99.90;;;;;;5108992;28;20062;-69
2021/01/08 06:45:14;;;;;;;33.40;14.27;;;0.90;99.90;;;;;;5109332;28;20054;-69
2021/01/08 06:47:46;;;;;;;30.97;12.97;;;1.00;99.90;;;;;;5109126;28;20134;-69
2021/01/08 06:50:17;;;;;;;31.50;12.97;;;1.00;99.90;;;;;;5107488;28;20056;-69
2021/01/08 06:52:45;;;;;;;30.00;12.93;;;1.00;99.90;;;;;;5108833;28;20083;-69
2021/01/08 06:55:18;;;;;;;28.37;12.27;;;1.10;99.90;;;;;;5108032;28;20052;-69
2021/01/08 06:57:54;;;;;;;29.97;12.67;;;1.00;99.90;;;;;;5108684;28;20051;-69
2021/01/08 07:00:23;;;;;;;25.23;11.57;;;1.00;99.90;;;;;;5108616;28;20047;-69
2021/01/08 07:02:57;;;;;;;30.20;12.60;;;0.90;99.90;;;;;;5108497;28;20055;-68
2021/01/08 07:05:33;;;;;;;30.40;13.13;;;0.90;99.90;;;;;;5113560;28;20361;-69
2021/01/08 07:08:00;;;;;;;30.85;12.23;;;1.10;99.90;;;;;;5112762;28;20047;-68
2021/01/08 07:10:31;;;;;;;26.93;12.83;;;1.00;99.90;;;;;;5112185;28;20078;-69
2021/01/08 07:12:58;;;;;;;27.37;13.17;;;1.00;99.90;;;;;;5112344;28;20405;-69
2021/01/08 07:15:26;;;;;;;29.20;12.93;;;1.00;99.90;;;;;;5111182;28;20058;-69
2021/01/08 07:17:55;;;;;;;31.70;13.10;;;1.00;99.90;;;;;;5112427;28;20043;-69
2021/01/08 07:20:22;;;;;;;27.83;12.30;;;1.00;99.90;;;;;;5114714;28;20044;-69
2021/01/08 07:22:55;;;;;;;25.47;11.23;;;1.00;99.90;;;;;;5116643;28;20047;-69
2021/01/08 07:25:24;;;;;;;27.30;12.57;;;1.00;99.90;;;;;;5117938;28;20043;-69
2021/01/08 07:27:53;;;;;;;27.97;11.33;;;1.00;99.90;;;;;;5111279;28;20055;-68
2021/01/08 07:30:21;;;;;;;29.07;13.07;;;1.00;99.90;;;;;;5112354;28;20488;-69
2021/01/08 07:32:49;;;;;;;28.73;11.50;;;1.10;99.90;;;;;;5111536;28;20048;-69
2021/01/08 07:35:18;;;;;;;27.27;12.77;;;1.00;99.90;;;;;;5112521;28;20048;-69
2021/01/08 07:38:04;;;;;;;32.30;12.73;;;1.00;99.90;;;;;;5112286;28;20047;-69
2021/01/08 07:40:32;;;;;;;27.80;12.17;;;1.10;99.90;;;;;;5110880;28;20055;-68
2021/01/08 07:43:01;;;;;;;27.30;11.70;;;1.10;99.90;;;;;;5112095;28;20072;-68
2021/01/08 07:45:50;;;;;;;29.33;13.37;;;1.20;99.90;;;;;;5111067;28;20058;-69
2021/01/08 07:48:24;;;;;;;30.90;12.70;;;1.10;99.90;;;;;;5112032;28;20047;-71
2021/01/08 07:50:52;;;;;;;25.43;12.57;;;1.20;99.90;;;;;;5110738;28;20874;-69
2021/01/08 07:53:48;;;;;;;32.20;14.20;;;1.20;99.90;;;;;;5111654;28;20543;-69
2021/01/08 07:56:16;;;;;;;27.47;11.30;;;1.10;99.90;;;;;;5111745;28;20048;-68
2021/01/08 07:58:45;;;;;;;28.33;12.33;;;1.10;99.90;;;;;;5110623;28;20044;-69
2021/01/08 08:01:15;;;;;;;23.93;11.47;;;1.20;99.90;;;;;;5111074;28;20051;-69
2021/01/08 08:03:42;;;;;;;31.57;12.93;;;1.20;99.90;;;;;;5110546;28;20056;-69
2021/01/08 08:06:09;;;;;;;31.67;13.53;;;1.20;99.90;;;;;;5111590;28;20047;-68
2021/01/08 08:08:43;;;;;;;27.43;12.87;;;1.20;99.90;;;;;;5110705;28;20127;-70
2021/01/08 08:11:15;;;;;;;27.93;12.83;;;1.20;99.90;;;;;;5110611;28;20095;-70
2021/01/08 08:13:43;;;;;;;27.90;12.63;;;1.20;99.90;;;;;;5111434;28;20052;-70
2021/01/08 08:16:10;;;;;;;31.23;12.93;;;1.20;99.90;;;;;;5110421;28;20044;-70
2021/01/08 08:18:50;;;;;;;24.97;12.97;;;1.20;99.90;;;;;;5111505;28;20454;-70
2021/01/08 08:21:16;;;;;;;27.80;12.73;;;1.30;99.90;;;;;;5111376;28;20377;-70
2021/01/08 08:23:51;;;;;;;30.33;12.37;;;1.30;99.90;;;;;;5110695;28;20414;-70
2021/01/08 08:26:17;;;;;;;30.83;13.53;;;1.50;99.90;;;;;;5111769;28;20048;-70
2021/01/08 08:28:45;;;;;;;26.20;12.97;;;1.50;99.90;;;;;;5110693;28;20047;-70
2021/01/08 08:31:14;;;;;;;29.83;12.43;;;1.50;99.90;;;;;;5110484;28;20570;-70
2021/01/08 08:33:45;;;;;;;30.77;14.07;;;1.50;99.90;;;;;;5111175;28;20060;-70
2021/01/08 08:36:20;;;;;;;30.43;13.30;;;1.40;99.90;;;;;;5111450;28;20502;-71
2021/01/08 08:39:06;;;;;;;24.00;12.13;;;1.60;99.90;;;;;;5110695;28;20495;-70
2021/01/08 08:41:35;;;;;;;27.03;12.37;;;1.50;99.90;;;;;;5110656;28;20059;-70
2021/01/08 08:44:07;;;;;;;31.73;13.93;;;1.50;99.90;;;;;;5111256;28;20043;-70
2021/01/08 08:46:49;;;;;;;31.17;14.10;;;1.50;99.90;;;;;;5110354;28;20458;-70
2021/01/08 08:49:16;;;;;;;29.73;13.03;;;1.50;99.90;;;;;;5111079;28;20400;-70
2021/01/08 08:51:44;;;;;;;27.00;12.63;;;1.50;99.90;;;;;;5110076;28;20048;-71
2021/01/08 08:54:12;;;;;;;27.17;12.57;;;1.60;99.90;;;;;;5111240;28;20407;-70
2021/01/08 08:56:52;;;;;;;26.67;12.97;;;1.60;99.90;;;;;;5110672;28;20051;-71
2021/01/08 08:59:39;;;;;;;26.20;11.67;;;1.60;99.90;;;;;;5111341;28;20052;-70
2021/01/08 09:02:06;;;;;;;28.27;11.68;;;1.60;99.90;;;;;;5111337;28;20043;-71
2021/01/08 09:04:33;;;;;;;27.17;13.43;;;1.60;99.90;;;;;;5110590;28;20415;-70
2021/01/08 09:07:03;;;;;;;25.90;11.33;;;1.60;99.90;;;;;;5085478;28;714003;-71
2021/01/08 09:09:34;;;;;;;26.30;12.70;;;1.50;99.90;;;;;;5110969;28;20048;-72
2021/01/08 09:12:17;;;;;;;27.63;12.80;;;1.60;99.90;;;;;;5110841;28;20043;-71
2021/01/08 09:14:48;;;;;;;23.03;11.27;;;1.50;99.90;;;;;;5111708;28;20051;-71
2021/01/08 09:17:20;;;;;;;23.63;11.03;;;1.50;99.90;;;;;;5110774;28;20067;-70
2021/01/08 09:19:51;;;;;;;22.47;10.93;;;1.50;99.90;;;;;;5111490;28;20094;-71
2021/01/08 09:22:18;;;;;;;26.07;12.27;;;1.40;99.90;;;;;;5110896;28;20047;-71
2021/01/08 09:24:46;;;;;;;25.37;12.10;;;1.40;99.90;;;;;;5110741;28;20051;-71
2021/01/08 09:27:13;;;;;;;23.73;11.90;;;1.40;99.90;;;;;;5111083;28;20048;-71
2021/01/08 09:29:41;;;;;;;22.97;11.50;;;1.40;99.90;;;;;;5110726;28;20092;-71
2021/01/08 09:32:08;;;;;;;24.40;11.57;;;1.40;99.90;;;;;;5111901;28;20498;-71
2021/01/08 09:34:37;;;;;;;28.33;11.57;;;1.40;99.90;;;;;;5112509;28;20456;-70
2021/01/08 09:37:15;;;;;;;28.07;12.53;;;1.40;99.90;;;;;;5102212;28;20044;-79
2021/01/08 09:39:45;;;;;;;25.90;12.17;;;1.40;99.90;;;;;;5096337;28;20535;-80
2021/01/08 09:42:12;;;;;;;27.40;12.23;;;1.50;99.90;;;;;;5089461;28;20048;-77
2021/01/08 09:44:41;;;;;;;26.53;11.50;;;1.50;99.90;;;;;;5089587;28;20059;-76
2021/01/08 09:47:10;;;;;;;28.73;12.47;;;1.60;99.90;;;;;;5091411;28;20044;-75
2021/01/08 09:49:42;;;;;;;27.63;11.93;;;1.80;99.90;;;;;;5101972;28;20048;-76
2021/01/08 09:52:10;;;;;;;24.90;11.90;;;1.70;99.90;;;;;;5100432;28;20055;-76
2021/01/08 09:54:47;;;;;;;24.97;12.17;;;1.70;99.90;;;;;;5093050;28;20519;-75
2021/01/08 09:57:27;;;;;;;33.27;13.70;;;1.80;99.90;;;;;;5093752;28;20047;-76
2021/01/08 09:59:55;;;;;;;22.37;11.20;;;1.70;99.90;;;;;;5087652;28;20052;-74
2021/01/08 10:02:39;;;;;;;26.87;13.00;;;1.60;99.90;;;;;;5108992;28;20074;-78
2021/01/08 10:05:08;;;;;;;26.97;12.20;;;1.70;99.90;;;;;;5109303;28;20475;-75
2021/01/08 10:07:42;;;;;;;28.10;12.30;;;1.70;99.90;;;;;;5102096;28;20101;-70
2021/01/08 10:10:11;;;;;;;24.13;12.20;;;1.70;99.90;;;;;;5100088;28;20543;-72
2021/01/08 10:12:45;;;;;;;27.00;12.40;;;1.70;99.90;;;;;;5092039;28;20051;-74
2021/01/08 10:15:13;;;;;;;25.60;12.80;;;1.70;99.90;;;;;;5089306;28;20124;-78
2021/01/08 10:17:48;;;;;;;29.27;13.20;;;1.70;99.90;;;;;;5090600;28;20113;-73
2021/01/08 10:20:17;;;;;;;26.77;11.80;;;1.70;99.90;;;;;;5088920;28;20048;-77
2021/01/08 10:22:47;;;;;;;26.67;12.60;;;1.80;99.90;;;;;;5090604;28;20411;-69
2021/01/08 10:25:27;;;;;;;26.40;10.47;;;1.70;99.90;;;;;;5091794;28;20063;-70
2021/01/08 10:27:54;;;;;;;24.70;12.13;;;1.60;99.90;;;;;;5103107;28;20055;-70
2021/01/08 10:30:22;;;;;;;25.50;12.37;;;1.60;99.90;;;;;;5107530;28;20048;-70
2021/01/08 10:32:50;;;;;;;26.57;13.07;;;1.70;99.90;;;;;;5092004;28;20055;-71
2021/01/08 10:35:18;;;;;;;25.33;11.60;;;1.60;99.90;;;;;;5103993;28;20085;-71
2021/01/08 10:37:48;;;;;;;21.17;11.37;;;1.60;99.90;;;;;;5097367;28;20055;-73
2021/01/08 10:40:15;;;;;;;21.90;10.43;;;1.60;99.90;;;;;;5104959;28;20052;-70
2021/01/08 10:42:42;;;;;;;23.77;11.30;;;1.60;99.90;;;;;;5101641;28;20059;-71
2021/01/08 10:45:09;;;;;;;22.33;10.40;;;1.50;99.90;;;;;;5096294;28;20143;-77
2021/01/08 10:47:36;;;;;;;21.43;10.83;;;1.50;99.90;;;;;;5106891;28;20108;-78
2021/01/08 10:50:05;;;;;;;22.17;9.93;;;1.60;99.90;;;;;;5104643;28;20102;-78
2021/01/08 10:52:32;;;;;;;24.77;11.07;;;1.60;99.90;;;;;;5111340;28;20100;-77
2021/01/08 10:54:59;;;;;;;19.53;10.10;;;1.70;99.90;;;;;;5112032;28;20052;-77
2021/01/08 10:57:26;;;;;;;23.13;10.60;;;1.80;99.90;;;;;;5112600;28;20051;-76
2021/01/08 10:59:53;;;;;;;21.40;10.33;;;1.90;99.90;;;;;;5113499;28;20043;-77
2021/01/08 11:02:19;;;;;;;21.00;10.80;;;1.90;99.90;;;;;;5111986;28;20055;-77
2021/01/08 11:04:49;;;;;;;16.67;7.73;;;1.90;99.90;;;;;;5115285;28;20051;-77
2021/01/08 11:07:16;;;;;;;17.43;8.73;;;1.90;99.90;;;;;;5114050;28;20052;-77
2021/01/08 11:09:43;;;;;;;19.00;9.53;;;1.90;99.90;;;;;;5113748;28;20055;-77
2021/01/08 11:12:11;;;;;;;19.10;10.13;;;2.00;99.90;;;;;;5113361;28;20058;-79
2021/01/08 11:14:38;;;;;;;14.90;8.17;;;1.90;99.90;;;;;;5113686;28;20109;-79
2021/01/08 11:17:04;;;;;;;16.87;8.47;;;1.90;99.90;;;;;;5101865;28;20051;-78
2021/01/08 11:19:31;;;;;;;18.60;8.67;;;1.90;99.90;;;;;;5091185;28;20044;-78
2021/01/08 11:21:58;;;;;;;19.07;9.13;;;2.00;99.90;;;;;;5090988;28;20143;-77
2021/01/08 11:24:26;;;;;;;26.83;13.27;;;2.10;99.90;;;;;;5092217;28;20054;-78
2021/01/08 11:26:52;;;;;;;24.10;12.30;;;2.00;99.90;;;;;;5096815;28;20114;-78
2021/01/08 11:29:19;;;;;;;20.70;9.47;;;2.00;99.90;;;;;;5106511;28;20051;-79
2021/01/08 11:31:46;;;;;;;20.17;10.37;;;2.10;99.90;;;;;;5111917;28;20055;-79
2021/01/08 11:34:13;;;;;;;18.80;9.37;;;2.10;99.90;;;;;;5097282;28;20055;-79
2021/01/08 11:36:40;;;;;;;16.57;8.27;;;2.10;99.90;;;;;;5094906;28;20130;-79
2021/01/08 11:39:07;;;;;;;17.83;9.40;;;2.10;99.90;;;;;;5110087;28;20036;-79
2021/01/08 11:41:34;;;;;;;17.73;8.87;;;2.00;99.90;;;;;;5106915;28;20047;-79
2021/01/08 11:44:01;;;;;;;16.43;8.60;;;2.30;99.90;;;;;;5111264;28;20047;-78
2021/01/08 11:46:28;;;;;;;14.43;8.20;;;2.20;99.90;;;;;;5108749;28;20048;-79
2021/01/08 11:48:55;;;;;;;17.33;8.73;;;2.30;99.90;;;;;;5100608;28;20055;-79
2021/01/08 11:51:23;;;;;;;17.80;8.80;;;2.30;99.90;;;;;;5101238;28;20368;-78
2021/01/08 11:53:51;;;;;;;15.23;8.20;;;2.30;99.90;;;;;;5090584;28;20505;-79
2021/01/08 11:56:26;;;;;;;15.63;8.20;;;2.40;99.90;;;;;;5091684;28;20084;-79
2021/01/08 11:58:58;;;;;;;15.17;7.93;;;2.30;99.90;;;;;;5108849;28;20761;-78
2021/01/08 12:01:28;;;;;;;18.67;8.47;;;2.30;99.90;;;;;;5109633;28;20051;-79
2021/01/08 12:03:59;;;;;;;18.23;9.27;;;2.30;99.90;;;;;;5110111;28;20294;-79
2021/01/08 12:06:27;;;;;;;16.23;8.57;;;2.40;99.90;;;;;;5110362;28;20044;-79
2021/01/08 12:08:55;;;;;;;16.53;8.40;;;2.40;99.90;;;;;;5102876;28;20056;-79
2021/01/08 12:11:22;;;;;;;14.83;7.90;;;2.40;99.90;;;;;;5104556;28;20075;-79
2021/01/08 12:13:49;;;;;;;14.93;7.70;;;2.60;99.90;;;;;;5104797;28;20565;-79
2021/01/08 12:16:23;;;;;;;16.63;8.03;;;2.80;99.90;;;;;;5099367;28;20048;-80
2021/01/08 12:18:50;;;;;;;14.07;7.50;;;2.80;99.90;;;;;;5090932;28;20059;-80
2021/01/08 12:21:17;;;;;;;16.03;7.57;;;2.80;99.90;;;;;;5104503;28;20055;-79
2021/01/08 12:23:44;;;;;;;13.87;7.50;;;2.80;99.90;;;;;;5107229;28;20043;-79
2021/01/08 12:26:15;;;;;;;12.83;6.87;;;2.80;99.90;;;;;;5100699;28;20051;-79
2021/01/08 12:28:42;;;;;;;12.63;7.43;;;2.90;99.90;;;;;;5100994;28;20044;-79
2021/01/08 12:31:09;;;;;;;12.97;6.87;;;2.80;99.90;;;;;;5100921;28;20495;-79
2021/01/08 12:33:41;;;;;;;13.37;7.10;;;2.70;99.90;;;;;;5105072;28;20051;-79
2021/01/08 12:36:09;;;;;;;12.27;6.30;;;2.80;99.90;;;;;;5110968;28;20051;-79
2021/01/08 12:38:36;;;;;;;12.43;6.53;;;2.80;99.90;;;;;;5112749;28;20055;-79
2021/01/08 12:41:06;;;;;;;15.07;7.57;;;2.60;99.90;;;;;;5111819;28;20052;-79
2021/01/08 12:43:55;;;;;;;13.40;7.27;;;2.70;99.90;;;;;;5111458;28;20096;-80
2021/01/08 12:46:28;;;;;;;15.57;7.87;;;2.70;99.90;;;;;;5112524;28;20044;-79
2021/01/08 12:48:56;;;;;;;13.63;6.63;;;2.80;99.90;;;;;;5101946;28;20047;-79
2021/01/08 12:51:22;;;;;;;14.03;7.50;;;2.90;99.90;;;;;;5101022;28;20131;-79